Time;durP1;ratioP1;P1;durP2;ratioP2;P2;SDS_P1;SDS_P2;PMS_P1;PMS_P2;Temp;Humidity;BMP_temperature;BMP_pressure;BME280_temperature;BME280_humidity;BME280_pressure;Samples;Min_cycle;Max_cycle;Signal;HPM_P1;HPM_P2
2023/01/30 00:01:03;;;;;;;17.45;8.80;;;;;;;;;;4304594;33;20045;-69
2023/01/30 00:03:29;;;;;;;11.27;6.10;;;;;;;;;;4254374;33;20045;-70
2023/01/30 00:05:55;;;;;;;13.70;7.05;;;;;;;;;;4271712;33;20075;-70
2023/01/30 00:08:22;;;;;;;13.43;5.62;;;;;;;;;;4269122;33;20493;-70
2023/01/30 00:10:48;;;;;;;16.77;7.82;;;;;;;;;;4271855;33;20056;-69
2023/01/30 00:13:14;;;;;;;10.18;6.43;;;;;;;;;;4256717;33;20084;-71
2023/01/30 00:15:41;;;;;;;11.77;5.93;;;;;;;;;;4254493;33;20492;-71
2023/01/30 00:18:08;;;;;;;11.57;6.65;;;;;;;;;;4256569;33;20104;-70
2023/01/30 00:20:34;;;;;;;13.60;6.85;;;;;;;;;;4245348;33;20038;-70
2023/01/30 00:23:00;;;;;;;7.53;4.40;;;;;;;;;;4242592;33;20085;-70
2023/01/30 00:25:27;;;;;;;18.10;7.40;;;;;;;;;;4244363;33;20060;-71
2023/01/30 00:27:53;;;;;;;14.80;7.65;;;;;;;;;;4246625;33;20054;-70
2023/01/30 00:30:19;;;;;;;19.85;8.50;;;;;;;;;;4245830;33;20061;-71
2023/01/30 00:32:45;;;;;;;13.43;6.12;;;;;;;;;;4246473;33;20055;-70
2023/01/30 00:35:11;;;;;;;11.48;6.68;;;;;;;;;;4246826;33;20034;-70
2023/01/30 00:37:37;;;;;;;14.32;5.97;;;;;;;;;;4244242;33;20038;-71
2023/01/30 00:40:04;;;;;;;17.17;6.82;;;;;;;;;;4249002;33;20060;-70
2023/01/30 00:47:59;;;;;;;22.98;7.45;;;;;;;;;;4270926;33;20057;-70
2023/01/30 00:50:41;;;;;;;17.52;8.57;;;;;;;;;;4275117;33;20045;-70
2023/01/30 00:53:11;;;;;;;21.77;8.50;;;;;;;;;;4296327;33;20033;-71
2023/01/30 00:55:38;;;;;;;13.30;5.97;;;;;;;;;;4298281;33;20115;-71
2023/01/30 00:58:04;;;;;;;20.23;8.35;;;;;;;;;;4298474;33;20419;-70
2023/01/30 03:00:48;;;;;;;13.07;7.30;;;;;;;;;;4966288;27;20257;-70
2023/01/30 03:03:30;;;;;;;20.90;9.25;;;;;;;;;;4294505;33;20033;-70
2023/01/30 03:06:02;;;;;;;17.27;7.72;;;;;;;;;;4294778;33;20394;-69
2023/01/30 03:08:33;;;;;;;13.10;6.45;;;;;;;;;;4297003;33;20087;-70
2023/01/30 03:11:02;;;;;;;16.95;8.32;;;;;;;;;;4295261;33;20049;-70
2023/01/30 03:13:37;;;;;;;12.68;5.00;;;;;;;;;;4295499;33;20106;-70
2023/01/30 03:16:07;;;;;;;12.13;6.07;;;;;;;;;;4296814;33;20075;-69
2023/01/30 03:18:33;;;;;;;13.75;6.12;;;;;;;;;;4297208;33;20355;-69
2023/01/30 03:21:02;;;;;;;8.10;5.75;;;;;;;;;;4296568;33;20071;-70
2023/01/30 03:23:28;;;;;;;13.13;6.60;;;;;;;;;;4295028;33;20109;-69
2023/01/30 03:25:55;;;;;;;12.27;5.97;;;;;;;;;;4296596;33;20952;-69
2023/01/30 03:28:22;;;;;;;14.63;7.22;;;;;;;;;;4296710;33;20440;-70
2023/01/30 03:30:49;;;;;;;16.35;7.37;;;;;;;;;;4295155;33;20363;-70
2023/01/30 03:33:14;;;;;;;12.60;6.53;;;;;;;;;;4297132;33;20040;-69
2023/01/30 03:35:45;;;;;;;11.07;5.80;;;;;;;;;;4294159;33;20041;-70
2023/01/30 03:38:13;;;;;;;8.65;5.55;;;;;;;;;;4297278;33;20074;-70
2023/01/30 03:40:39;;;;;;;11.12;6.37;;;;;;;;;;4296543;33;20066;-70
2023/01/30 03:43:06;;;;;;;9.10;5.47;;;;;;;;;;4292325;33;20044;-69
2023/01/30 03:45:33;;;;;;;15.38;6.93;;;;;;;;;;4290569;33;20351;-70
2023/01/30 03:47:59;;;;;;;10.23;4.72;;;;;;;;;;4292913;33;20042;-70
2023/01/30 03:50:25;;;;;;;4.93;3.17;;;;;;;;;;4294044;33;20067;-70
2023/01/30 03:52:51;;;;;;;8.43;4.55;;;;;;;;;;4282523;33;20029;-70
2023/01/30 03:55:17;;;;;;;10.07;5.90;;;;;;;;;;4279544;33;20915;-69
2023/01/30 03:57:44;;;;;;;14.02;6.55;;;;;;;;;;4277482;33;20034;-70
2023/01/30 04:00:11;;;;;;;15.05;6.40;;;;;;;;;;4282649;33;20198;-70
2023/01/30 04:02:42;;;;;;;12.75;6.93;;;;;;;;;;4285978;33;20390;-70
2023/01/30 04:05:08;;;;;;;9.57;6.32;;;;;;;;;;4282823;33;20085;-70
2023/01/30 04:07:35;;;;;;;12.80;5.78;;;;;;;;;;4279934;33;20026;-70
2023/01/30 04:10:01;;;;;;;14.70;6.57;;;;;;;;;;4281493;33;20053;-70
2023/01/30 04:12:27;;;;;;;15.77;7.37;;;;;;;;;;4280540;33;20037;-70
2023/01/30 04:14:54;;;;;;;13.32;6.97;;;;;;;;;;4269594;33;20041;-70
2023/01/30 04:17:20;;;;;;;10.32;5.57;;;;;;;;;;4267949;33;20065;-70
2023/01/30 04:19:48;;;;;;;16.58;6.90;;;;;;;;;;4267734;33;20279;-70
2023/01/30 04:22:13;;;;;;;10.70;5.40;;;;;;;;;;4268466;33;20041;-71
2023/01/30 04:24:40;;;;;;;7.03;4.37;;;;;;;;;;4268026;33;20061;-69
2023/01/30 04:27:08;;;;;;;7.50;4.45;;;;;;;;;;4268337;33;20071;-69
2023/01/30 04:29:35;;;;;;;7.03;5.05;;;;;;;;;;4250950;33;20185;-69
2023/01/30 04:32:03;;;;;;;11.25;6.28;;;;;;;;;;4268313;33;20071;-69
2023/01/30 04:34:35;;;;;;;9.15;5.15;;;;;;;;;;4267901;33;20123;-70
2023/01/30 04:37:02;;;;;;;9.07;6.30;;;;;;;;;;4280058;33;20367;-70
2023/01/30 04:39:28;;;;;;;14.90;6.95;;;;;;;;;;4280426;33;20100;-70
2023/01/30 04:41:55;;;;;;;16.83;6.70;;;;;;;;;;4284717;33;20394;-70
2023/01/30 04:44:21;;;;;;;12.60;6.68;;;;;;;;;;4297491;33;20063;-70
2023/01/30 04:46:47;;;;;;;14.48;8.07;;;;;;;;;;4297018;33;20036;-69
2023/01/30 04:49:14;;;;;;;10.65;6.95;;;;;;;;;;4296304;33;20076;-70
2023/01/30 04:51:40;;;;;;;10.43;5.55;;;;;;;;;;4294824;33;20366;-69
2023/01/30 04:54:07;;;;;;;9.00;4.80;;;;;;;;;;4296879;33;20184;-69
2023/01/30 04:56:33;;;;;;;11.38;5.28;;;;;;;;;;4296512;33;20378;-70
2023/01/30 04:58:59;;;;;;;11.45;6.43;;;;;;;;;;4296012;33;20049;-70
2023/01/30 05:01:33;;;;;;;14.65;6.35;;;;;;;;;;4292344;33;20413;-69
2023/01/30 05:04:00;;;;;;;12.68;6.80;;;;;;;;;;4282614;33;20053;-69
2023/01/30 05:06:26;;;;;;;9.55;5.72;;;;;;;;;;4290245;33;20041;-69
2023/01/30 05:08:53;;;;;;;12.93;7.07;;;;;;;;;;4297259;33;20378;-70
2023/01/30 05:11:20;;;;;;;10.32;5.68;;;;;;;;;;4296789;33;20340;-69
2023/01/30 05:13:46;;;;;;;7.30;4.68;;;;;;;;;;4296937;33;20045;-70
2023/01/30 05:16:13;;;;;;;6.50;3.62;;;;;;;;;;4298886;33;20570;-71
2023/01/30 05:18:39;;;;;;;11.90;5.57;;;;;;;;;;4293364;33;20467;-70
2023/01/30 05:21:13;;;;;;;12.77;7.22;;;;;;;;;;4289905;33;20095;-71
2023/01/30 05:23:40;;;;;;;11.77;6.18;;;;;;;;;;4289908;33;20169;-71
2023/01/30 05:26:06;;;;;;;10.57;6.07;;;;;;;;;;4283290;33;20057;-71
2023/01/30 05:28:32;;;;;;;14.73;6.62;;;;;;;;;;4294441;33;20045;-71
2023/01/30 05:31:11;;;;;;;13.45;7.25;;;;;;;;;;4298583;33;20107;-70
2023/01/30 05:33:38;;;;;;;6.82;4.68;;;;;;;;;;4298116;33;20076;-71
2023/01/30 05:36:05;;;;;;;9.43;5.95;;;;;;;;;;4297166;33;20184;-70
2023/01/30 05:38:31;;;;;;;4.53;3.85;;;;;;;;;;4298457;33;20510;-71
2023/01/30 05:40:58;;;;;;;11.70;6.93;;;;;;;;;;4298236;33;20037;-70
2023/01/30 05:43:25;;;;;;;7.60;4.05;;;;;;;;;;4297239;33;20049;-70
2023/01/30 05:45:51;;;;;;;15.30;6.93;;;;;;;;;;4290313;33;20067;-71
2023/01/30 05:48:17;;;;;;;10.57;5.40;;;;;;;;;;4296041;33;20526;-71
2023/01/30 05:50:43;;;;;;;14.40;7.32;;;;;;;;;;4278200;33;20025;-71
2023/01/30 05:53:10;;;;;;;13.80;7.22;;;;;;;;;;4223716;34;20051;-70
2023/01/30 05:55:36;;;;;;;11.25;5.93;;;;;;;;;;4223046;34;20053;-70
2023/01/30 05:58:02;;;;;;;11.90;6.43;;;;;;;;;;4221702;34;20043;-70
2023/01/30 06:00:28;;;;;;;9.70;5.00;;;;;;;;;;4223959;34;20176;-70
2023/01/30 06:02:54;;;;;;;14.87;6.03;;;;;;;;;;4224579;33;20101;-70
2023/01/30 06:05:20;;;;;;;15.00;7.78;;;;;;;;;;4222777;34;20094;-70
2023/01/30 06:07:46;;;;;;;7.60;5.55;;;;;;;;;;4224549;34;20056;-70
2023/01/30 06:10:13;;;;;;;12.98;7.10;;;;;;;;;;4222247;34;20072;-70
2023/01/30 06:12:39;;;;;;;14.25;7.18;;;;;;;;;;4223628;34;20445;-69
2023/01/30 06:15:05;;;;;;;8.68;5.37;;;;;;;;;;4224010;33;20137;-70
2023/01/30 06:17:31;;;;;;;10.38;6.28;;;;;;;;;;4223867;33;20058;-70
2023/01/30 06:19:57;;;;;;;19.05;7.53;;;;;;;;;;4234126;33;20142;-71
2023/01/30 06:22:23;;;;;;;13.15;7.80;;;;;;;;;;4236256;33;20433;-71
2023/01/30 06:24:49;;;;;;;9.45;4.35;;;;;;;;;;4258442;33;20056;-69
2023/01/30 06:27:16;;;;;;;9.20;4.15;;;;;;;;;;4276537;33;20054;-69
2023/01/30 06:29:42;;;;;;;6.12;3.80;;;;;;;;;;4282373;33;20054;-69
2023/01/30 06:32:09;;;;;;;6.45;4.78;;;;;;;;;;4282539;33;20101;-70
2023/01/30 06:34:35;;;;;;;5.18;4.68;;;;;;;;;;4284821;33;20067;-70
2023/01/30 06:37:02;;;;;;;15.02;7.00;;;;;;;;;;4289923;33;20292;-68
2023/01/30 06:39:28;;;;;;;12.35;7.20;;;;;;;;;;4287395;33;20115;-70
2023/01/30 06:41:55;;;;;;;12.18;6.87;;;;;;;;;;4290365;33;20087;-70
2023/01/30 06:44:21;;;;;;;13.93;7.28;;;;;;;;;;4289365;33;20053;-70
2023/01/30 06:46:48;;;;;;;4.32;3.22;;;;;;;;;;4288009;33;20094;-68
2023/01/30 06:49:14;;;;;;;10.73;5.97;;;;;;;;;;4288378;33;20892;-69
2023/01/30 06:51:42;;;;;;;14.57;6.55;;;;;;;;;;4288767;33;20045;-69
2023/01/30 06:54:08;;;;;;;18.12;8.80;;;;;;;;;;4289881;33;20093;-69
2023/01/30 06:56:34;;;;;;;15.18;6.72;;;;;;;;;;4271342;33;20052;-69
2023/01/30 06:59:02;;;;;;;13.70;6.72;;;;;;;;;;4289044;33;20063;-69
2023/01/30 07:01:30;;;;;;;17.58;9.60;;;;;;;;;;4287465;33;20069;-69
2023/01/30 07:03:57;;;;;;;25.70;10.82;;;;;;;;;;4286515;33;20057;-70
2023/01/30 07:06:27;;;;;;;11.23;8.02;;;;;;;;;;4289272;33;20056;-69
2023/01/30 07:08:57;;;;;;;24.80;13.02;;;;;;;;;;4288252;33;20025;-69
2023/01/30 07:11:25;;;;;;;22.05;12.75;;;;;;;;;;4289250;33;20057;-69
2023/01/30 07:13:51;;;;;;;20.30;9.45;;;;;;;;;;4287944;33;20115;-69
2023/01/30 07:16:18;;;;;;;22.87;12.00;;;;;;;;;;4287679;33;20051;-70
2023/01/30 07:18:44;;;;;;;15.98;9.32;;;;;;;;;;4287723;33;20409;-69
2023/01/30 07:21:10;;;;;;;13.00;7.40;;;;;;;;;;4286073;33;20768;-70
2023/01/30 07:23:37;;;;;;;23.58;9.35;;;;;;;;;;4287380;33;20049;-69
2023/01/30 07:26:04;;;;;;;14.38;6.30;;;;;;;;;;4288117;33;20453;-69
2023/01/30 07:28:30;;;;;;;23.33;8.18;;;;;;;;;;4287078;33;20071;-70
2023/01/30 07:31:00;;;;;;;23.85;10.18;;;;;;;;;;4269721;33;20169;-70
2023/01/30 07:33:26;;;;;;;16.33;8.48;;;;;;;;;;4271009;33;20038;-70
2023/01/30 07:35:52;;;;;;;21.80;10.52;;;;;;;;;;4271167;33;20029;-70
2023/01/30 07:38:18;;;;;;;11.70;6.60;;;;;;;;;;4271930;33;20122;-69
2023/01/30 07:40:44;;;;;;;10.68;5.70;;;;;;;;;;4257364;33;20352;-69
2023/01/30 07:43:11;;;;;;;30.37;8.80;;;;;;;;;;4256266;33;20049;-69
2023/01/30 07:45:39;;;;;;;21.10;8.05;;;;;;;;;;4256990;33;20084;-69
2023/01/30 07:48:06;;;;;;;48.33;14.27;;;;;;;;;;4258108;33;20161;-73
2023/01/30 07:50:32;;;;;;;38.28;14.32;;;;;;;;;;4256588;33;20043;-73
2023/01/30 07:53:01;;;;;;;20.10;7.37;;;;;;;;;;4244225;33;20038;-72
2023/01/30 07:55:27;;;;;;;23.00;9.18;;;;;;;;;;4244666;33;20181;-72
2023/01/30 07:57:54;;;;;;;26.12;11.18;;;;;;;;;;4206613;34;20072;-71
2023/01/30 08:00:20;;;;;;;19.90;10.95;;;;;;;;;;4225773;33;20061;-71
2023/01/30 08:02:47;;;;;;;27.58;9.18;;;;;;;;;;4235146;33;20092;-71
2023/01/30 08:05:13;;;;;;;28.87;11.32;;;;;;;;;;4242066;33;20400;-70
2023/01/30 08:07:39;;;;;;;16.58;8.88;;;;;;;;;;4239934;33;20050;-70
2023/01/30 08:10:06;;;;;;;12.00;6.53;;;;;;;;;;4236585;33;20082;-70
2023/01/30 08:12:32;;;;;;;16.45;9.02;;;;;;;;;;4233155;33;20039;-71
2023/01/30 08:14:59;;;;;;;20.05;10.13;;;;;;;;;;4227086;33;20054;-71
2023/01/30 08:17:32;;;;;;;10.98;7.57;;;;;;;;;;4221994;33;20093;-70
2023/01/30 08:19:58;;;;;;;13.07;7.20;;;;;;;;;;4228026;33;20111;-71
2023/01/30 08:22:24;;;;;;;25.55;8.85;;;;;;;;;;4227917;33;20182;-70
2023/01/30 08:24:50;;;;;;;22.02;10.27;;;;;;;;;;4245740;33;20088;-71
2023/01/30 08:27:16;;;;;;;16.60;8.25;;;;;;;;;;4249259;33;20529;-71
2023/01/30 08:29:43;;;;;;;17.50;8.35;;;;;;;;;;4273791;33;20071;-72
2023/01/30 08:32:09;;;;;;;9.23;5.55;;;;;;;;;;4283112;33;20048;-71
2023/01/30 08:34:36;;;;;;;14.50;6.82;;;;;;;;;;4288663;33;20087;-71
2023/01/30 08:37:02;;;;;;;22.62;10.27;;;;;;;;;;4288013;33;20053;-72
2023/01/30 08:39:29;;;;;;;20.62;9.32;;;;;;;;;;4288272;33;20729;-73
2023/01/30 08:41:54;;;;;;;20.17;7.70;;;;;;;;;;4288681;33;20088;-71
2023/01/30 08:44:21;;;;;;;18.42;9.20;;;;;;;;;;4273621;33;20183;-73
2023/01/30 08:46:47;;;;;;;21.00;8.73;;;;;;;;;;4277630;33;20034;-70
2023/01/30 08:49:14;;;;;;;18.70;9.13;;;;;;;;;;4258667;33;20058;-70
2023/01/30 08:51:40;;;;;;;14.27;6.75;;;;;;;;;;4243488;33;20035;-71
2023/01/30 08:54:06;;;;;;;13.65;8.60;;;;;;;;;;4242626;33;20067;-70
2023/01/30 08:56:33;;;;;;;12.27;7.45;;;;;;;;;;4243957;33;20066;-71
2023/01/30 08:59:00;;;;;;;13.55;5.87;;;;;;;;;;4246296;33;20072;-71
2023/01/30 09:01:26;;;;;;;29.55;12.57;;;;;;;;;;4244065;33;20050;-73
2023/01/30 09:03:53;;;;;;;15.23;7.18;;;;;;;;;;4244472;33;20042;-71
2023/01/30 09:06:19;;;;;;;15.23;7.15;;;;;;;;;;4243422;33;20057;-71
2023/01/30 09:08:45;;;;;;;18.02;7.43;;;;;;;;;;4245059;33;20053;-70
2023/01/30 09:11:11;;;;;;;15.85;9.75;;;;;;;;;;4244591;33;20475;-70
2023/01/30 09:13:42;;;;;;;13.02;6.12;;;;;;;;;;4233174;33;20134;-70
2023/01/30 09:16:09;;;;;;;17.23;9.65;;;;;;;;;;4229410;33;20077;-70
2023/01/30 09:18:42;;;;;;;11.63;5.20;;;;;;;;;;4225744;33;20050;-70
2023/01/30 09:21:09;;;;;;;12.57;7.47;;;;;;;;;;4246795;33;20078;-70
2023/01/30 09:23:35;;;;;;;18.55;8.30;;;;;;;;;;4253219;33;20058;-70
2023/01/30 09:26:02;;;;;;;10.15;5.87;;;;;;;;;;4250476;33;20017;-70
2023/01/30 09:28:29;;;;;;;16.90;8.82;;;;;;;;;;4253290;33;20072;-71
2023/01/30 09:30:55;;;;;;;9.73;6.60;;;;;;;;;;4252862;33;20213;-70
2023/01/30 09:33:22;;;;;;;10.18;5.85;;;;;;;;;;4254902;33;20041;-71
2023/01/30 09:35:49;;;;;;;14.70;6.97;;;;;;;;;;4253889;33;20069;-71
2023/01/30 09:38:16;;;;;;;19.02;8.77;;;;;;;;;;4253083;33;20050;-71
2023/01/30 09:41:00;;;;;;;10.98;6.35;;;;;;;;;;4255989;33;20042;-72
2023/01/30 09:43:29;;;;;;;15.82;5.43;;;;;;;;;;4256208;33;20069;-71
2023/01/30 09:46:12;;;;;;;12.98;7.75;;;;;;;;;;4287388;33;20367;-71
2023/01/30 09:48:59;;;;;;;12.02;7.55;;;;;;;;;;4290012;33;20110;-70
2023/01/30 09:51:37;;;;;;;12.55;7.90;;;;;;;;;;4276359;33;20465;-71
2023/01/30 09:54:14;;;;;;;12.95;8.30;;;;;;;;;;4288432;33;20125;-71
2023/01/30 09:56:40;;;;;;;8.45;5.03;;;;;;;;;;4282905;33;20041;-71
2023/01/30 09:59:14;;;;;;;19.62;9.27;;;;;;;;;;4279720;33;20119;-71
2023/01/30 10:01:49;;;;;;;18.12;8.10;;;;;;;;;;4286384;33;20458;-71
2023/01/30 10:04:28;;;;;;;19.40;9.05;;;;;;;;;;4281366;33;20410;-72
2023/01/30 10:07:09;;;;;;;21.77;8.95;;;;;;;;;;4278713;33;20075;-71
2023/01/30 10:09:42;;;;;;;23.65;11.18;;;;;;;;;;4280989;33;20038;-70
2023/01/30 10:12:34;;;;;;;20.08;9.38;;;;;;;;;;4278590;33;20088;-69
2023/01/30 10:15:18;;;;;;;14.30;8.32;;;;;;;;;;4274852;33;20058;-69
2023/01/30 10:17:45;;;;;;;11.55;6.53;;;;;;;;;;4281854;33;20037;-70
2023/01/30 10:20:20;;;;;;;15.43;8.02;;;;;;;;;;4282627;33;20053;-70
2023/01/30 10:23:01;;;;;;;10.80;5.97;;;;;;;;;;4286617;33;20282;-69
2023/01/30 10:25:33;;;;;;;15.10;7.12;;;;;;;;;;4284497;33;20060;-69
2023/01/30 10:28:15;;;;;;;15.50;8.23;;;;;;;;;;4284146;33;20041;-69
2023/01/30 10:30:43;;;;;;;15.85;7.93;;;;;;;;;;4285828;33;20108;-69
2023/01/30 10:33:21;;;;;;;14.70;8.40;;;;;;;;;;4286659;33;20128;-69
2023/01/30 10:36:15;;;;;;;10.00;7.25;;;;;;;;;;4284194;33;20423;-69
2023/01/30 10:38:48;;;;;;;17.08;8.48;;;;;;;;;;4287242;33;20062;-70
2023/01/30 10:41:33;;;;;;;12.05;7.82;;;;;;;;;;4265239;33;20083;-70
2023/01/30 10:43:59;;;;;;;10.30;5.35;;;;;;;;;;4267862;33;20049;-70
2023/01/30 10:46:31;;;;;;;18.73;9.45;;;;;;;;;;4270148;33;20169;-70
2023/01/30 10:49:00;;;;;;;11.80;7.05;;;;;;;;;;4268220;33;20084;-71
2023/01/30 10:51:45;;;;;;;17.27;8.50;;;;;;;;;;4234503;33;20069;-70
2023/01/30 10:54:15;;;;;;;15.15;5.37;;;;;;;;;;4238762;33;20046;-70
2023/01/30 10:56:41;;;;;;;24.10;9.20;;;;;;;;;;4241109;33;20535;-70
2023/01/30 10:59:19;;;;;;;12.55;7.97;;;;;;;;;;4239885;33;20046;-70
2023/01/30 11:01:54;;;;;;;16.48;8.30;;;;;;;;;;4250198;33;20050;-69
2023/01/30 11:04:46;;;;;;;19.30;8.60;;;;;;;;;;4256253;33;20068;-69
2023/01/30 11:07:13;;;;;;;14.07;7.22;;;;;;;;;;4232745;33;20049;-70
2023/01/30 11:09:40;;;;;;;15.85;8.25;;;;;;;;;;4257322;33;20050;-70
2023/01/30 11:12:06;;;;;;;19.90;8.82;;;;;;;;;;4255899;33;20064;-70
2023/01/30 11:14:51;;;;;;;11.48;5.95;;;;;;;;;;4261483;33;20059;-71
2023/01/30 11:17:20;;;;;;;8.57;4.97;;;;;;;;;;4262164;33;20065;-70
2023/01/30 11:19:53;;;;;;;13.45;7.50;;;;;;;;;;4263318;33;20075;-70
2023/01/30 11:22:19;;;;;;;10.07;5.03;;;;;;;;;;4221015;33;20202;-69
2023/01/30 11:24:46;;;;;;;5.30;3.50;;;;;;;;;;4218962;33;20043;-69
2023/01/30 11:27:16;;;;;;;12.90;7.95;;;;;;;;;;4232329;33;20050;-70
2023/01/30 11:29:42;;;;;;;10.38;6.30;;;;;;;;;;4251561;33;20060;-68
2023/01/30 11:32:13;;;;;;;13.30;6.85;;;;;;;;;;4261553;33;20076;-69
2023/01/30 11:34:40;;;;;;;15.40;6.93;;;;;;;;;;4260804;33;20067;-69
2023/01/30 11:37:22;;;;;;;19.70;8.73;;;;;;;;;;4258824;33;20228;-69
2023/01/30 11:39:51;;;;;;;15.40;8.15;;;;;;;;;;4261448;33;20450;-68
2023/01/30 11:42:18;;;;;;;10.90;5.93;;;;;;;;;;4254783;33;20119;-69
2023/01/30 11:44:44;;;;;;;12.98;6.30;;;;;;;;;;4241676;33;20049;-69
2023/01/30 11:47:21;;;;;;;7.30;5.07;;;;;;;;;;4242456;33;20046;-70
2023/01/30 11:49:51;;;;;;;8.48;5.45;;;;;;;;;;4240032;33;20039;-70
2023/01/30 11:52:19;;;;;;;12.68;6.00;;;;;;;;;;4242245;33;20144;-70
2023/01/30 11:54:45;;;;;;;17.52;8.63;;;;;;;;;;4270785;33;20080;-70
2023/01/30 11:57:15;;;;;;;6.57;4.55;;;;;;;;;;4268755;33;20076;-70
2023/01/30 11:59:46;;;;;;;17.75;7.75;;;;;;;;;;4268947;33;20072;-70
2023/01/30 12:02:19;;;;;;;10.70;6.72;;;;;;;;;;4445543;27;20054;-70
2023/01/30 12:04:47;;;;;;;15.20;6.93;;;;;;;;;;4273412;33;20109;-71
2023/01/30 12:07:19;;;;;;;16.12;7.35;;;;;;;;;;4269973;33;20524;-72
2023/01/30 12:09:45;;;;;;;12.23;7.50;;;;;;;;;;4275004;33;20421;-72
2023/01/30 12:12:26;;;;;;;13.80;7.20;;;;;;;;;;4271257;33;20072;-73
2023/01/30 12:14:53;;;;;;;17.75;6.82;;;;;;;;;;4268772;33;20531;-72
2023/01/30 12:17:22;;;;;;;13.43;7.50;;;;;;;;;;4257506;33;20088;-73
2023/01/30 12:19:51;;;;;;;14.73;7.72;;;;;;;;;;4259706;33;20052;-72
2023/01/30 12:22:21;;;;;;;17.12;7.28;;;;;;;;;;4251516;33;20050;-72
2023/01/30 12:24:58;;;;;;;10.77;6.97;;;;;;;;;;4241588;33;20058;-72
2023/01/30 12:27:28;;;;;;;10.27;5.97;;;;;;;;;;4242615;33;20043;-72
2023/01/30 12:30:04;;;;;;;13.15;7.60;;;;;;;;;;4237359;33;20038;-72
2023/01/30 12:32:32;;;;;;;10.07;4.90;;;;;;;;;;4239584;33;20569;-72
2023/01/30 12:35:16;;;;;;;14.07;7.25;;;;;;;;;;4237343;33;20058;-72
2023/01/30 12:37:55;;;;;;;15.60;8.80;;;;;;;;;;4237081;33;20100;-71
2023/01/30 12:40:40;;;;;;;4.28;3.78;;;;;;;;;;4237453;33;20049;-71
2023/01/30 12:43:24;;;;;;;15.05;7.70;;;;;;;;;;4237460;33;20072;-71
2023/01/30 12:45:58;;;;;;;10.02;6.68;;;;;;;;;;4237798;33;20043;-71
2023/01/30 12:48:27;;;;;;;12.40;7.00;;;;;;;;;;4236408;33;20155;-71
2023/01/30 12:51:03;;;;;;;5.37;3.70;;;;;;;;;;4237437;33;20039;-72
2023/01/30 12:53:32;;;;;;;8.43;5.00;;;;;;;;;;4238815;33;20773;-72
2023/01/30 12:56:25;;;;;;;7.62;4.80;;;;;;;;;;4255149;33;20449;-73
2023/01/30 12:58:57;;;;;;;12.63;7.32;;;;;;;;;;4265400;33;20046;-74
2023/01/30 13:01:32;;;;;;;10.88;6.68;;;;;;;;;;4268283;33;20045;-73
2023/01/30 13:03:59;;;;;;;12.23;6.47;;;;;;;;;;4282266;33;20049;-74
2023/01/30 13:06:38;;;;;;;12.48;6.82;;;;;;;;;;4281903;33;20045;-75
2023/01/30 13:09:23;;;;;;;12.45;6.37;;;;;;;;;;4282338;33;20100;-72
2023/01/30 13:11:49;;;;;;;10.95;6.57;;;;;;;;;;4276711;33;20071;-73
2023/01/30 13:14:20;;;;;;;14.60;7.20;;;;;;;;;;4270072;33;20361;-72
2023/01/30 13:16:49;;;;;;;13.27;7.40;;;;;;;;;;4257415;33;20302;-72
2023/01/30 13:19:15;;;;;;;9.80;6.07;;;;;;;;;;4267160;33;20401;-76
2023/01/30 13:21:45;;;;;;;12.88;7.32;;;;;;;;;;4254523;33;20415;-72
2023/01/30 13:24:44;;;;;;;13.50;7.93;;;;;;;;;;4257194;33;20049;-73
2023/01/30 13:27:18;;;;;;;4.70;2.80;;;;;;;;;;4234514;33;20419;-73
2023/01/30 13:29:47;;;;;;;8.25;5.35;;;;;;;;;;4220448;33;20121;-73
2023/01/30 13:32:34;;;;;;;8.05;4.95;;;;;;;;;;4213978;33;20101;-73
2023/01/30 13:35:08;;;;;;;4.80;4.05;;;;;;;;;;4213063;34;20095;-73
2023/01/30 13:37:37;;;;;;;5.25;3.65;;;;;;;;;;4213466;34;20089;-73
2023/01/30 13:40:04;;;;;;;9.85;5.93;;;;;;;;;;4215064;34;20043;-73
2023/01/30 13:42:37;;;;;;;9.38;5.12;;;;;;;;;;4216748;34;20073;-73
2023/01/30 13:45:05;;;;;;;14.68;7.50;;;;;;;;;;4211263;34;20051;-73
2023/01/30 13:47:46;;;;;;;8.48;5.32;;;;;;;;;;4205505;34;21211;-73
2023/01/30 13:50:32;;;;;;;6.50;4.65;;;;;;;;;;4194074;34;20084;-73
2023/01/30 13:53:01;;;;;;;12.88;6.85;;;;;;;;;;4192369;34;20049;-72
2023/01/30 13:55:36;;;;;;;6.82;4.43;;;;;;;;;;4196065;34;20066;-72
2023/01/30 13:58:09;;;;;;;12.02;6.25;;;;;;;;;;4197208;34;20044;-72
2023/01/30 14:00:36;;;;;;;11.88;6.95;;;;;;;;;;4209999;34;20038;-71
2023/01/30 14:03:13;;;;;;;14.38;7.12;;;;;;;;;;4233917;33;20218;-71
2023/01/30 14:05:46;;;;;;;11.60;6.37;;;;;;;;;;4256278;33;20038;-72
2023/01/30 14:08:17;;;;;;;12.75;6.85;;;;;;;;;;4260512;33;20140;-71
2023/01/30 14:10:44;;;;;;;11.27;7.12;;;;;;;;;;4253005;33;20418;-71
2023/01/30 14:13:12;;;;;;;9.88;6.22;;;;;;;;;;4282019;33;20450;-71
2023/01/30 14:15:41;;;;;;;12.23;6.32;;;;;;;;;;4287497;33;20354;-71
2023/01/30 14:18:21;;;;;;;11.82;6.05;;;;;;;;;;4290240;33;20087;-72
2023/01/30 14:20:51;;;;;;;12.73;7.62;;;;;;;;;;4286660;33;20037;-72
2023/01/30 14:23:31;;;;;;;11.23;6.75;;;;;;;;;;4243263;33;20026;-73
2023/01/30 14:25:57;;;;;;;15.27;7.22;;;;;;;;;;4247275;33;20046;-73
2023/01/30 14:28:24;;;;;;;17.40;8.25;;;;;;;;;;4237269;33;20034;-73
2023/01/30 14:30:51;;;;;;;13.23;6.43;;;;;;;;;;4237831;33;20034;-73
2023/01/30 14:33:20;;;;;;;15.50;8.30;;;;;;;;;;4238838;33;20045;-73
2023/01/30 14:36:01;;;;;;;17.40;7.35;;;;;;;;;;4236569;33;20380;-73
2023/01/30 14:38:32;;;;;;;16.30;7.47;;;;;;;;;;4248962;33;20050;-73
2023/01/30 14:40:58;;;;;;;13.75;6.57;;;;;;;;;;4238354;33;20058;-73
2023/01/30 14:43:24;;;;;;;7.62;4.80;;;;;;;;;;4236343;33;20031;-73
2023/01/30 14:45:52;;;;;;;14.60;7.90;;;;;;;;;;4238405;33;20039;-73
2023/01/30 14:48:27;;;;;;;9.70;6.03;;;;;;;;;;4236562;33;20378;-74
2023/01/30 14:51:13;;;;;;;6.20;4.18;;;;;;;;;;4230753;33;20696;-73
2023/01/30 14:53:50;;;;;;;12.70;8.77;;;;;;;;;;4244304;33;20037;-73
2023/01/30 14:56:18;;;;;;;19.60;8.85;;;;;;;;;;4263610;33;20067;-72
2023/01/30 14:58:57;;;;;;;6.75;3.53;;;;;;;;;;4265953;33;20041;-72
2023/01/30 15:01:24;;;;;;;8.23;5.72;;;;;;;;;;4265660;33;20468;-72
2023/01/30 15:03:51;;;;;;;14.18;7.72;;;;;;;;;;4267798;33;20090;-75
2023/01/30 15:06:19;;;;;;;15.25;8.57;;;;;;;;;;4265138;33;20079;-72
2023/01/30 15:08:46;;;;;;;9.10;6.82;;;;;;;;;;4266090;33;20051;-72
2023/01/30 15:11:28;;;;;;;8.77;3.95;;;;;;;;;;4253430;33;20034;-73
2023/01/30 15:13:58;;;;;;;13.80;7.87;;;;;;;;;;4263872;33;20022;-72
2023/01/30 15:16:43;;;;;;;11.12;6.15;;;;;;;;;;4266381;33;20081;-73
2023/01/30 15:19:16;;;;;;;15.05;8.32;;;;;;;;;;4277229;33;20451;-72
2023/01/30 15:21:48;;;;;;;14.27;7.43;;;;;;;;;;4273443;33;20098;-71
2023/01/30 15:24:17;;;;;;;12.00;6.25;;;;;;;;;;4278848;33;20063;-73
2023/01/30 15:26:43;;;;;;;12.90;7.28;;;;;;;;;;4275405;33;20428;-73
2023/01/30 15:29:15;;;;;;;16.60;7.90;;;;;;;;;;4264877;33;20083;-74
2023/01/30 15:31:55;;;;;;;17.70;8.25;;;;;;;;;;4262505;33;20169;-73
2023/01/30 15:34:22;;;;;;;12.43;6.43;;;;;;;;;;4263640;33;20484;-72
2023/01/30 15:36:49;;;;;;;14.90;7.37;;;;;;;;;;4272699;33;20464;-72
2023/01/30 15:39:19;;;;;;;11.50;6.65;;;;;;;;;;4274770;33;20096;-73
2023/01/30 15:41:46;;;;;;;15.57;5.70;;;;;;;;;;4276979;33;20053;-72
2023/01/30 15:44:20;;;;;;;16.95;8.45;;;;;;;;;;4274701;33;20083;-74
2023/01/30 15:46:47;;;;;;;13.23;6.28;;;;;;;;;;4276607;33;20053;-71
2023/01/30 15:49:32;;;;;;;13.85;7.62;;;;;;;;;;4268536;33;20069;-72
2023/01/30 15:52:02;;;;;;;14.43;8.18;;;;;;;;;;4264727;33;20046;-72
2023/01/30 15:54:28;;;;;;;19.52;9.75;;;;;;;;;;4280400;33;20163;-73
2023/01/30 15:56:57;;;;;;;13.62;6.12;;;;;;;;;;4280252;33;20059;-71
2023/01/30 15:59:33;;;;;;;12.57;7.93;;;;;;;;;;4277755;33;20088;-72
2023/01/30 16:02:01;;;;;;;10.27;7.20;;;;;;;;;;4279483;33;20396;-73
2023/01/30 16:04:28;;;;;;;5.57;3.97;;;;;;;;;;4282400;33;20059;-73
2023/01/30 16:06:54;;;;;;;14.23;7.55;;;;;;;;;;4285333;33;20042;-74
2023/01/30 16:09:26;;;;;;;4.65;3.03;;;;;;;;;;4283007;33;20080;-73
2023/01/30 16:11:52;;;;;;;12.63;7.10;;;;;;;;;;4281921;33;20644;-73
2023/01/30 16:14:19;;;;;;;10.00;6.18;;;;;;;;;;4282771;33;20067;-73
2023/01/30 16:16:52;;;;;;;14.55;6.97;;;;;;;;;;4284944;33;20061;-73
2023/01/30 16:19:36;;;;;;;5.72;4.68;;;;;;;;;;4282537;33;20355;-73
2023/01/30 16:22:04;;;;;;;13.75;6.15;;;;;;;;;;4284686;33;20114;-73
2023/01/30 16:24:35;;;;;;;8.95;4.25;;;;;;;;;;4285154;33;20398;-73
2023/01/30 16:27:04;;;;;;;8.73;4.78;;;;;;;;;;4282899;33;20049;-74
2023/01/30 16:29:31;;;;;;;14.18;6.95;;;;;;;;;;4282950;33;20057;-72
2023/01/30 16:31:57;;;;;;;15.45;6.72;;;;;;;;;;4283087;33;20125;-72
2023/01/30 16:34:23;;;;;;;9.43;5.95;;;;;;;;;;4285374;33;20049;-74
2023/01/30 16:36:49;;;;;;;15.57;7.05;;;;;;;;;;4284914;33;20046;-73
2023/01/30 16:39:29;;;;;;;11.27;5.53;;;;;;;;;;4283756;33;20144;-72
2023/01/30 16:41:56;;;;;;;9.18;5.10;;;;;;;;;;4284297;33;20098;-72
2023/01/30 16:44:24;;;;;;;12.35;6.87;;;;;;;;;;4284722;33;20089;-72
2023/01/30 16:47:12;;;;;;;11.57;6.78;;;;;;;;;;4283497;33;20045;-73
2023/01/30 16:49:40;;;;;;;18.42;8.10;;;;;;;;;;4284275;33;20391;-71
2023/01/30 16:52:12;;;;;;;9.90;5.85;;;;;;;;;;4286395;33;20540;-71